sensor_id;sensor_type;location;lat;lon;timestamp;temperature;humidity
11399;DHT22;5755;48.116;11.608;2022-10-16T00:01:26;13.00;99.90
11399;DHT22;5755;48.116;11.608;2022-10-16T00:03:53;12.90;99.90
11399;DHT22;5755;48.116;11.608;2022-10-16T00:06:24;12.90;99.90
11399;DHT22;5755;48.116;11.608;2022-10-16T00:08:56;13.00;99.90
11399;DHT22;5755;48.116;11.608;2022-10-16T00:11:24;12.90;99.90
11399;DHT22;5755;48.116;11.608;2022-10-16T00:13:55;12.90;99.90
11399;DHT22;5755;48.116;11.608;2022-10-16T00:16:36;12.90;99.90
11399;DHT22;5755;48.116;11.608;2022-10-16T00:19:06;12.90;99.90
11399;DHT22;5755;48.116;11.608;2022-10-16T00:21:36;12.90;99.90
11399;DHT22;5755;48.116;11.608;2022-10-16T00:24:13;12.80;99.90
11399;DHT22;5755;48.116;11.608;2022-10-16T00:26:40;12.70;99.90
11399;DHT22;5755;48.116;11.608;2022-10-16T00:29:24;12.60;99.90
11399;DHT22;5755;48.116;11.608;2022-10-16T00:32:00;12.70;99.90
11399;DHT22;5755;48.116;11.608;2022-10-16T00:34:30;12.80;99.90
11399;DHT22;5755;48.116;11.608;2022-10-16T00:36:57;12.70;99.90
11399;DHT22;5755;48.116;11.608;2022-10-16T00:39:49;12.70;99.90
11399;DHT22;5755;48.116;11.608;2022-10-16T00:42:17;12.70;99.90
11399;DHT22;5755;48.116;11.608;2022-10-16T00:44:55;12.60;99.90
11399;DHT22;5755;48.116;11.608;2022-10-16T00:47:27;12.60;99.90
11399;DHT22;5755;48.116;11.608;2022-10-16T00:50:18;12.60;99.90
11399;DHT22;5755;48.116;11.608;2022-10-16T00:56:13;12.60;99.90
11399;DHT22;5755;48.116;11.608;2022-10-16T01:01:55;12.50;99.90
11399;DHT22;5755;48.116;11.608;2022-10-16T01:20:48;12.30;99.90
11399;DHT22;5755;48.116;11.608;2022-10-16T01:23:27;12.20;99.90
11399;DHT22;5755;48.116;11.608;2022-10-16T01:26:09;12.20;99.90
11399;DHT22;5755;48.116;11.608;2022-10-16T01:28:55;12.20;99.90
11399;DHT22;5755;48.116;11.608;2022-10-16T01:31:27;12.30;99.90
11399;DHT22;5755;48.116;11.608;2022-10-16T01:34:10;12.40;99.90
11399;DHT22;5755;48.116;11.608;2022-10-16T01:36:47;12.40;99.90
11399;DHT22;5755;48.116;11.608;2022-10-16T01:43:06;12.40;99.90
11399;DHT22;5755;48.116;11.608;2022-10-16T01:45:36;12.50;99.90
11399;DHT22;5755;48.116;11.608;2022-10-16T02:01:02;12.40;99.90
11399;DHT22;5755;48.116;11.608;2022-10-16T02:04:07;12.40;99.90
11399;DHT22;5755;48.116;11.608;2022-10-16T02:13:22;12.30;99.90
11399;DHT22;5755;48.116;11.608;2022-10-16T02:15:53;12.20;99.90
11399;DHT22;5755;48.116;11.608;2022-10-16T02:18:26;12.20;99.90
11399;DHT22;5755;48.116;11.608;2022-10-16T02:21:03;12.10;99.90
11399;DHT22;5755;48.116;11.608;2022-10-16T02:27:06;12.00;99.90
11399;DHT22;5755;48.116;11.608;2022-10-16T02:30:13;12.00;99.90
11399;DHT22;5755;48.116;11.608;2022-10-16T02:32:49;12.00;99.90
11399;DHT22;5755;48.116;11.608;2022-10-16T02:35:23;11.90;99.90
11399;DHT22;5755;48.116;11.608;2022-10-16T02:37:51;12.00;99.90
11399;DHT22;5755;48.116;11.608;2022-10-16T02:40:47;11.90;99.90
11399;DHT22;5755;48.116;11.608;2022-10-16T02:43:30;11.90;99.90
11399;DHT22;5755;48.116;11.608;2022-10-16T02:46:06;11.90;99.90
11399;DHT22;5755;48.116;11.608;2022-10-16T02:51:52;11.90;99.90
11399;DHT22;5755;48.116;11.608;2022-10-16T02:54:19;11.90;99.90
11399;DHT22;5755;48.116;11.608;2022-10-16T02:56:48;11.90;99.90
11399;DHT22;5755;48.116;11.608;2022-10-16T02:59:41;11.90;99.90
11399;DHT22;5755;48.116;11.608;2022-10-16T03:05:24;11.80;99.90
11399;DHT22;5755;48.116;11.608;2022-10-16T03:07:55;11.80;99.90
11399;DHT22;5755;48.116;11.608;2022-10-16T03:10:30;11.70;99.90
11399;DHT22;5755;48.116;11.608;2022-10-16T03:16:19;11.70;99.90
11399;DHT22;5755;48.116;11.608;2022-10-16T03:19:05;11.70;99.90
11399;DHT22;5755;48.116;11.608;2022-10-16T03:21:54;11.70;99.90
11399;DHT22;5755;48.116;11.608;2022-10-16T03:24:49;11.80;99.90
11399;DHT22;5755;48.116;11.608;2022-10-16T03:27:18;11.70;99.90
11399;DHT22;5755;48.116;11.608;2022-10-16T03:29:45;11.60;99.90
11399;DHT22;5755;48.116;11.608;2022-10-16T03:32:12;11.60;99.90
11399;DHT22;5755;48.116;11.608;2022-10-16T03:34:48;11.70;99.90
11399;DHT22;5755;48.116;11.608;2022-10-16T03:37:19;11.70;99.90
11399;DHT22;5755;48.116;11.608;2022-10-16T03:42:55;11.80;99.90
11399;DHT22;5755;48.116;11.608;2022-10-16T03:45:42;11.80;99.90
11399;DHT22;5755;48.116;11.608;2022-10-16T03:48:12;11.80;99.90
11399;DHT22;5755;48.116;11.608;2022-10-16T03:54:12;12.00;99.90
11399;DHT22;5755;48.116;11.608;2022-10-16T03:56:54;12.00;99.90
11399;DHT22;5755;48.116;11.608;2022-10-16T04:03:07;12.00;99.90
11399;DHT22;5755;48.116;11.608;2022-10-16T04:05:57;12.00;99.90
11399;DHT22;5755;48.116;11.608;2022-10-16T04:08:47;12.00;99.90
11399;DHT22;5755;48.116;11.608;2022-10-16T04:14:20;12.10;99.90
11399;DHT22;5755;48.116;11.608;2022-10-16T04:16:47;12.10;99.90
11399;DHT22;5755;48.116;11.608;2022-10-16T04:19:37;12.10;99.90
11399;DHT22;5755;48.116;11.608;2022-10-16T04:22:06;12.10;99.90
11399;DHT22;5755;48.116;11.608;2022-10-16T04:24:33;12.20;99.90
11399;DHT22;5755;48.116;11.608;2022-10-16T04:27:06;12.20;99.90
11399;DHT22;5755;48.116;11.608;2022-10-16T04:29:36;12.40;99.90
11399;DHT22;5755;48.116;11.608;2022-10-16T04:32:03;12.60;99.90
11399;DHT22;5755;48.116;11.608;2022-10-16T04:34:30;12.50;99.90
11399;DHT22;5755;48.116;11.608;2022-10-16T04:36:59;12.50;99.90
11399;DHT22;5755;48.116;11.608;2022-10-16T04:39:26;12.40;99.90
11399;DHT22;5755;48.116;11.608;2022-10-16T04:41:52;12.50;99.90
11399;DHT22;5755;48.116;11.608;2022-10-16T04:44:19;12.50;99.90
11399;DHT22;5755;48.116;11.608;2022-10-16T04:46:50;12.40;99.90
11399;DHT22;5755;48.116;11.608;2022-10-16T04:49:17;12.40;99.90
11399;DHT22;5755;48.116;11.608;2022-10-16T04:51:44;12.40;99.90
11399;DHT22;5755;48.116;11.608;2022-10-16T04:54:13;12.40;99.90
11399;DHT22;5755;48.116;11.608;2022-10-16T04:56:48;12.40;99.90
11399;DHT22;5755;48.116;11.608;2022-10-16T04:59:17;12.40;99.90
11399;DHT22;5755;48.116;11.608;2022-10-16T05:01:48;12.40;99.90
11399;DHT22;5755;48.116;11.608;2022-10-16T05:04:15;12.50;99.90
11399;DHT22;5755;48.116;11.608;2022-10-16T05:06:42;12.50;99.90
11399;DHT22;5755;48.116;11.608;2022-10-16T05:09:14;12.50;99.90
11399;DHT22;5755;48.116;11.608;2022-10-16T05:11:41;12.50;99.90
11399;DHT22;5755;48.116;11.608;2022-10-16T05:14:08;12.50;99.90
11399;DHT22;5755;48.116;11.608;2022-10-16T05:16:36;12.50;99.90
11399;DHT22;5755;48.116;11.608;2022-10-16T05:19:03;12.50;99.90
11399;DHT22;5755;48.116;11.608;2022-10-16T05:21:30;12.50;99.90
11399;DHT22;5755;48.116;11.608;2022-10-16T05:23:57;12.50;99.90
11399;DHT22;5755;48.116;11.608;2022-10-16T05:26:25;12.50;99.90
11399;DHT22;5755;48.116;11.608;2022-10-16T05:28:52;12.50;99.90
11399;DHT22;5755;48.116;11.608;2022-10-16T05:31:19;12.60;99.90
11399;DHT22;5755;48.116;11.608;2022-10-16T05:33:46;12.60;99.90
11399;DHT22;5755;48.116;11.608;2022-10-16T05:36:13;12.70;99.90
11399;DHT22;5755;48.116;11.608;2022-10-16T05:38:50;12.60;99.90
11399;DHT22;5755;48.116;11.608;2022-10-16T05:41:17;12.70;99.90
11399;DHT22;5755;48.116;11.608;2022-10-16T05:43:50;12.70;99.90
11399;DHT22;5755;48.116;11.608;2022-10-16T05:46:18;12.70;99.90
11399;DHT22;5755;48.116;11.608;2022-10-16T05:48:45;12.70;99.90
11399;DHT22;5755;48.116;11.608;2022-10-16T05:51:14;12.80;99.90
11399;DHT22;5755;48.116;11.608;2022-10-16T05:53:43;12.90;99.90
11399;DHT22;5755;48.116;11.608;2022-10-16T05:56:11;12.90;99.90
11399;DHT22;5755;48.116;11.608;2022-10-16T05:58:39;12.80;99.90
11399;DHT22;5755;48.116;11.608;2022-10-16T06:01:15;12.70;99.90
11399;DHT22;5755;48.116;11.608;2022-10-16T06:03:42;12.70;99.90
11399;DHT22;5755;48.116;11.608;2022-10-16T06:06:13;12.60;99.90
11399;DHT22;5755;48.116;11.608;2022-10-16T06:08:43;12.60;99.90
11399;DHT22;5755;48.116;11.608;2022-10-16T06:11:13;12.60;99.90
11399;DHT22;5755;48.116;11.608;2022-10-16T06:13:40;12.60;99.90
11399;DHT22;5755;48.116;11.608;2022-10-16T06:16:08;12.70;99.90
11399;DHT22;5755;48.116;11.608;2022-10-16T06:18:38;12.80;99.90
11399;DHT22;5755;48.116;11.608;2022-10-16T06:21:08;12.90;99.90
11399;DHT22;5755;48.116;11.608;2022-10-16T06:23:36;13.00;99.90
11399;DHT22;5755;48.116;11.608;2022-10-16T06:26:07;12.90;99.90
11399;DHT22;5755;48.116;11.608;2022-10-16T06:28:34;13.00;99.90
11399;DHT22;5755;48.116;11.608;2022-10-16T06:31:01;13.00;99.90
11399;DHT22;5755;48.116;11.608;2022-10-16T06:33:28;13.10;99.90
11399;DHT22;5755;48.116;11.608;2022-10-16T06:36:01;13.10;99.90
11399;DHT22;5755;48.116;11.608;2022-10-16T06:38:29;13.10;99.90
11399;DHT22;5755;48.116;11.608;2022-10-16T06:41:07;13.10;99.90
11399;DHT22;5755;48.116;11.608;2022-10-16T06:43:34;13.10;99.90
11399;DHT22;5755;48.116;11.608;2022-10-16T06:46:03;13.20;99.90
11399;DHT22;5755;48.116;11.608;2022-10-16T06:48:30;13.40;99.90
11399;DHT22;5755;48.116;11.608;2022-10-16T06:50:58;13.50;99.90
11399;DHT22;5755;48.116;11.608;2022-10-16T06:53:29;13.50;99.90
11399;DHT22;5755;48.116;11.608;2022-10-16T06:56:07;13.60;99.90
11399;DHT22;5755;48.116;11.608;2022-10-16T06:58:36;13.50;99.90
11399;DHT22;5755;48.116;11.608;2022-10-16T07:01:05;13.50;99.90
11399;DHT22;5755;48.116;11.608;2022-10-16T07:03:44;13.50;99.90
11399;DHT22;5755;48.116;11.608;2022-10-16T07:06:12;13.50;99.90
11399;DHT22;5755;48.116;11.608;2022-10-16T07:08:53;13.60;99.90
11399;DHT22;5755;48.116;11.608;2022-10-16T07:11:22;13.60;99.90
11399;DHT22;5755;48.116;11.608;2022-10-16T07:13:54;13.70;99.90
11399;DHT22;5755;48.116;11.608;2022-10-16T07:16:36;13.70;99.90
11399;DHT22;5755;48.116;11.608;2022-10-16T07:19:18;13.70;99.90
11399;DHT22;5755;48.116;11.608;2022-10-16T07:21:45;13.70;99.90
11399;DHT22;5755;48.116;11.608;2022-10-16T07:27:43;13.90;99.90
11399;DHT22;5755;48.116;11.608;2022-10-16T07:30:10;14.00;99.90
11399;DHT22;5755;48.116;11.608;2022-10-16T07:32:37;14.10;99.90
11399;DHT22;5755;48.116;11.608;2022-10-16T07:35:12;14.30;99.90
11399;DHT22;5755;48.116;11.608;2022-10-16T07:37:39;14.50;99.90
11399;DHT22;5755;48.116;11.608;2022-10-16T07:40:07;14.70;99.90
11399;DHT22;5755;48.116;11.608;2022-10-16T07:42:50;14.80;99.90
11399;DHT22;5755;48.116;11.608;2022-10-16T07:45:30;14.90;99.90
11399;DHT22;5755;48.116;11.608;2022-10-16T07:47:57;15.00;99.90
11399;DHT22;5755;48.116;11.608;2022-10-16T07:50:24;15.10;99.90
11399;DHT22;5755;48.116;11.608;2022-10-16T07:52:51;15.20;99.90
11399;DHT22;5755;48.116;11.608;2022-10-16T07:55:30;15.30;99.80
11399;DHT22;5755;48.116;11.608;2022-10-16T08:04:30;15.50;99.00
11399;DHT22;5755;48.116;11.608;2022-10-16T08:10:22;15.60;99.10
11399;DHT22;5755;48.116;11.608;2022-10-16T08:19:48;16.00;98.70
11399;DHT22;5755;48.116;11.608;2022-10-16T08:22:36;16.10;98.60
11399;DHT22;5755;48.116;11.608;2022-10-16T08:28:27;16.50;97.20
11399;DHT22;5755;48.116;11.608;2022-10-16T08:30:54;16.80;95.30
11399;DHT22;5755;48.116;11.608;2022-10-16T08:36:46;17.70;93.00
11399;DHT22;5755;48.116;11.608;2022-10-16T08:39:36;18.10;92.20
11399;DHT22;5755;48.116;11.608;2022-10-16T08:42:20;18.50;89.00
11399;DHT22;5755;48.116;11.608;2022-10-16T08:48:17;19.00;90.00
11399;DHT22;5755;48.116;11.608;2022-10-16T08:50:55;19.70;80.60
11399;DHT22;5755;48.116;11.608;2022-10-16T08:53:30;20.90;70.40
11399;DHT22;5755;48.116;11.608;2022-10-16T08:55:59;22.30;50.40
11399;DHT22;5755;48.116;11.608;2022-10-16T08:58:28;23.60;40.90
11399;DHT22;5755;48.116;11.608;2022-10-16T09:01:33;24.70;34.10
11399;DHT22;5755;48.116;11.608;2022-10-16T09:04:24;25.00;27.70
11399;DHT22;5755;48.116;11.608;2022-10-16T09:07:04;26.00;24.50
11399;DHT22;5755;48.116;11.608;2022-10-16T09:09:50;26.20;23.20
11399;DHT22;5755;48.116;11.608;2022-10-16T09:15:32;27.80;20.90
11399;DHT22;5755;48.116;11.608;2022-10-16T09:18:19;29.20;16.20
11399;DHT22;5755;48.116;11.608;2022-10-16T09:21:00;29.80;16.60
11399;DHT22;5755;48.116;11.608;2022-10-16T09:23:43;30.00;16.60
11399;DHT22;5755;48.116;11.608;2022-10-16T09:26:13;30.30;15.40
11399;DHT22;5755;48.116;11.608;2022-10-16T09:28:41;30.70;14.30
11399;DHT22;5755;48.116;11.608;2022-10-16T09:31:13;31.20;14.40
11399;DHT22;5755;48.116;11.608;2022-10-16T09:33:44;31.20;12.70
11399;DHT22;5755;48.116;11.608;2022-10-16T09:36:13;30.90;13.60
11399;DHT22;5755;48.116;11.608;2022-10-16T09:38:41;30.60;12.80
11399;DHT22;5755;48.116;11.608;2022-10-16T09:41:17;30.10;13.60
11399;DHT22;5755;48.116;11.608;2022-10-16T09:43:52;30.20;13.20
11399;DHT22;5755;48.116;11.608;2022-10-16T09:46:26;30.60;13.40
11399;DHT22;5755;48.116;11.608;2022-10-16T09:48:57;30.40;14.30
11399;DHT22;5755;48.116;11.608;2022-10-16T09:51:26;30.30;13.70
11399;DHT22;5755;48.116;11.608;2022-10-16T09:53:59;29.80;15.40
11399;DHT22;5755;48.116;11.608;2022-10-16T09:56:28;29.50;16.40
11399;DHT22;5755;48.116;11.608;2022-10-16T09:58:59;29.20;16.20
11399;DHT22;5755;48.116;11.608;2022-10-16T10:01:30;28.80;16.10
11399;DHT22;5755;48.116;11.608;2022-10-16T10:03:58;28.70;16.70
11399;DHT22;5755;48.116;11.608;2022-10-16T10:06:30;28.90;16.10
11399;DHT22;5755;48.116;11.608;2022-10-16T10:09:00;28.90;16.10
11399;DHT22;5755;48.116;11.608;2022-10-16T10:11:56;29.50;15.10
11399;DHT22;5755;48.116;11.608;2022-10-16T10:14:30;29.50;16.40
11399;DHT22;5755;48.116;11.608;2022-10-16T10:17:17;30.30;13.80
11399;DHT22;5755;48.116;11.608;2022-10-16T10:19:50;29.90;13.00
11399;DHT22;5755;48.116;11.608;2022-10-16T10:22:23;29.90;14.10
11399;DHT22;5755;48.116;11.608;2022-10-16T10:25:19;29.30;15.60
11399;DHT22;5755;48.116;11.608;2022-10-16T10:28:02;29.00;16.10
11399;DHT22;5755;48.116;11.608;2022-10-16T10:30:40;29.00;14.80
11399;DHT22;5755;48.116;11.608;2022-10-16T10:33:24;28.90;16.10
11399;DHT22;5755;48.116;11.608;2022-10-16T10:35:58;29.00;14.80
11399;DHT22;5755;48.116;11.608;2022-10-16T10:38:34;28.30;19.20
11399;DHT22;5755;48.116;11.608;2022-10-16T10:44:07;27.80;18.90
11399;DHT22;5755;48.116;11.608;2022-10-16T10:46:41;27.70;18.40
11399;DHT22;5755;48.116;11.608;2022-10-16T10:49:27;28.00;16.50
11399;DHT22;5755;48.116;11.608;2022-10-16T10:52:17;27.70;17.50
11399;DHT22;5755;48.116;11.608;2022-10-16T10:54:54;27.40;18.40
11399;DHT22;5755;48.116;11.608;2022-10-16T10:57:29;27.10;18.20
11399;DHT22;5755;48.116;11.608;2022-10-16T11:00:06;26.60;20.00
11399;DHT22;5755;48.116;11.608;2022-10-16T11:02:42;26.10;19.40
11399;DHT22;5755;48.116;11.608;2022-10-16T11:05:23;26.00;20.30
11399;DHT22;5755;48.116;11.608;2022-10-16T11:07:58;25.70;20.70
11399;DHT22;5755;48.116;11.608;2022-10-16T11:10:29;25.50;20.00
11399;DHT22;5755;48.116;11.608;2022-10-16T11:13:06;25.40;19.40
11399;DHT22;5755;48.116;11.608;2022-10-16T11:15:38;25.40;18.60
11399;DHT22;5755;48.116;11.608;2022-10-16T11:18:08;25.20;19.50
11399;DHT22;5755;48.116;11.608;2022-10-16T11:20:42;25.20;17.30
11399;DHT22;5755;48.116;11.608;2022-10-16T11:23:16;25.20;15.80
11399;DHT22;5755;48.116;11.608;2022-10-16T11:25:46;25.30;18.20
11399;DHT22;5755;48.116;11.608;2022-10-16T11:28:17;25.30;18.60
11399;DHT22;5755;48.116;11.608;2022-10-16T11:30:54;25.10;18.20
11399;DHT22;5755;48.116;11.608;2022-10-16T11:33:33;25.10;18.90
11399;DHT22;5755;48.116;11.608;2022-10-16T11:36:11;25.10;17.80
11399;DHT22;5755;48.116;11.608;2022-10-16T11:38:45;25.10;17.80
11399;DHT22;5755;48.116;11.608;2022-10-16T11:41:22;25.00;19.20
11399;DHT22;5755;48.116;11.608;2022-10-16T11:43:57;24.90;19.10
11399;DHT22;5755;48.116;11.608;2022-10-16T11:46:32;24.70;17.90
11399;DHT22;5755;48.116;11.608;2022-10-16T11:49:11;24.60;19.90
11399;DHT22;5755;48.116;11.608;2022-10-16T11:51:43;24.70;20.00
11399;DHT22;5755;48.116;11.608;2022-10-16T11:54:20;24.80;18.40
11399;DHT22;5755;48.116;11.608;2022-10-16T11:56:52;24.90;18.60
11399;DHT22;5755;48.116;11.608;2022-10-16T11:59:25;24.80;19.10
11399;DHT22;5755;48.116;11.608;2022-10-16T12:02:01;24.70;16.70
11399;DHT22;5755;48.116;11.608;2022-10-16T12:04:33;24.60;16.10
11399;DHT22;5755;48.116;11.608;2022-10-16T12:07:05;24.50;17.80
11399;DHT22;5755;48.116;11.608;2022-10-16T12:09:34;24.60;18.30
11399;DHT22;5755;48.116;11.608;2022-10-16T12:12:03;24.60;18.10
11399;DHT22;5755;48.116;11.608;2022-10-16T12:14:36;24.70;18.20
11399;DHT22;5755;48.116;11.608;2022-10-16T12:17:24;24.70;17.70
11399;DHT22;5755;48.116;11.608;2022-10-16T12:20:12;24.80;17.40
11399;DHT22;5755;48.116;11.608;2022-10-16T12:22:48;24.70;17.70
11399;DHT22;5755;48.116;11.608;2022-10-16T12:25:21;24.70;16.60
11399;DHT22;5755;48.116;11.608;2022-10-16T12:27:55;24.70;17.40
11399;DHT22;5755;48.116;11.608;2022-10-16T12:30:24;24.70;17.20
11399;DHT22;5755;48.116;11.608;2022-10-16T12:32:57;24.60;16.60
11399;DHT22;5755;48.116;11.608;2022-10-16T12:35:27;24.60;16.60
11399;DHT22;5755;48.116;11.608;2022-10-16T12:38:08;24.50;16.20
11399;DHT22;5755;48.116;11.608;2022-10-16T12:40:39;24.30;16.70
11399;DHT22;5755;48.116;11.608;2022-10-16T12:43:24;24.20;18.00
11399;DHT22;5755;48.116;11.608;2022-10-16T12:46:00;24.20;18.10
11399;DHT22;5755;48.116;11.608;2022-10-16T12:48:32;24.30;18.30
11399;DHT22;5755;48.116;11.608;2022-10-16T12:51:10;24.20;17.60
11399;DHT22;5755;48.116;11.608;2022-10-16T12:53:38;24.30;18.10
11399;DHT22;5755;48.116;11.608;2022-10-16T12:56:11;24.20;18.10
11399;DHT22;5755;48.116;11.608;2022-10-16T12:58:58;24.20;18.80
11399;DHT22;5755;48.116;11.608;2022-10-16T13:01:42;24.20;17.90
11399;DHT22;5755;48.116;11.608;2022-10-16T13:04:29;24.10;18.00
11399;DHT22;5755;48.116;11.608;2022-10-16T13:07:13;24.00;18.20
11399;DHT22;5755;48.116;11.608;2022-10-16T13:09:53;24.00;18.50
11399;DHT22;5755;48.116;11.608;2022-10-16T13:12:39;23.90;17.80
11399;DHT22;5755;48.116;11.608;2022-10-16T13:18:19;23.80;17.40
11399;DHT22;5755;48.116;11.608;2022-10-16T13:21:16;23.80;18.00
11399;DHT22;5755;48.116;11.608;2022-10-16T13:23:49;23.90;17.70
11399;DHT22;5755;48.116;11.608;2022-10-16T13:26:27;23.80;18.00
11399;DHT22;5755;48.116;11.608;2022-10-16T13:28:59;23.80;18.70
11399;DHT22;5755;48.116;11.608;2022-10-16T13:31:26;23.80;18.90
11399;DHT22;5755;48.116;11.608;2022-10-16T13:33:56;23.80;18.10
11399;DHT22;5755;48.116;11.608;2022-10-16T13:36:29;23.70;18.80
11399;DHT22;5755;48.116;11.608;2022-10-16T13:39:12;23.70;18.60
11399;DHT22;5755;48.116;11.608;2022-10-16T13:41:39;23.70;18.60
11399;DHT22;5755;48.116;11.608;2022-10-16T13:44:11;23.70;19.60
11399;DHT22;5755;48.116;11.608;2022-10-16T13:46:39;23.60;19.20
11399;DHT22;5755;48.116;11.608;2022-10-16T13:49:12;23.50;19.20
11399;DHT22;5755;48.116;11.608;2022-10-16T13:51:41;23.60;18.90
11399;DHT22;5755;48.116;11.608;2022-10-16T13:54:09;23.50;19.50
11399;DHT22;5755;48.116;11.608;2022-10-16T13:56:42;23.50;20.00
11399;DHT22;5755;48.116;11.608;2022-10-16T13:59:23;23.40;19.10
11399;DHT22;5755;48.116;11.608;2022-10-16T14:01:51;23.30;20.40
11399;DHT22;5755;48.116;11.608;2022-10-16T14:04:20;23.40;19.70
11399;DHT22;5755;48.116;11.608;2022-10-16T14:06:50;23.30;20.20
11399;DHT22;5755;48.116;11.608;2022-10-16T14:09:23;23.30;20.00
11399;DHT22;5755;48.116;11.608;2022-10-16T14:11:54;23.20;20.50
11399;DHT22;5755;48.116;11.608;2022-10-16T14:14:22;23.10;20.80
11399;DHT22;5755;48.116;11.608;2022-10-16T14:16:54;23.10;21.00
11399;DHT22;5755;48.116;11.608;2022-10-16T14:19:25;23.10;22.00
11399;DHT22;5755;48.116;11.608;2022-10-16T14:21:54;23.00;22.80
11399;DHT22;5755;48.116;11.608;2022-10-16T14:24:26;22.90;21.90
11399;DHT22;5755;48.116;11.608;2022-10-16T14:26:54;22.90;21.10
11399;DHT22;5755;48.116;11.608;2022-10-16T14:29:31;22.90;21.40
11399;DHT22;5755;48.116;11.608;2022-10-16T14:31:59;22.90;21.20
11399;DHT22;5755;48.116;11.608;2022-10-16T14:34:32;22.90;21.00
11399;DHT22;5755;48.116;11.608;2022-10-16T14:37:05;22.90;22.00
11399;DHT22;5755;48.116;11.608;2022-10-16T14:39:35;22.80;21.50
11399;DHT22;5755;48.116;11.608;2022-10-16T14:42:02;22.80;20.60
11399;DHT22;5755;48.116;11.608;2022-10-16T14:44:32;22.80;20.50
11399;DHT22;5755;48.116;11.608;2022-10-16T14:47:07;22.80;20.80
11399;DHT22;5755;48.116;11.608;2022-10-16T14:49:37;22.70;21.80
11399;DHT22;5755;48.116;11.608;2022-10-16T14:52:09;22.60;22.50
11399;DHT22;5755;48.116;11.608;2022-10-16T14:54:43;22.50;23.50
11399;DHT22;5755;48.116;11.608;2022-10-16T14:57:19;22.30;22.20
11399;DHT22;5755;48.116;11.608;2022-10-16T14:59:49;22.20;22.10
11399;DHT22;5755;48.116;11.608;2022-10-16T15:02:22;22.10;22.00
11399;DHT22;5755;48.116;11.608;2022-10-16T15:05:14;22.00;23.00
11399;DHT22;5755;48.116;11.608;2022-10-16T15:07:51;21.90;23.00
11399;DHT22;5755;48.116;11.608;2022-10-16T15:10:25;21.80;22.80
11399;DHT22;5755;48.116;11.608;2022-10-16T15:12:53;21.80;22.90
11399;DHT22;5755;48.116;11.608;2022-10-16T15:21:49;21.60;24.10
11399;DHT22;5755;48.116;11.608;2022-10-16T15:24:32;21.50;24.50
11399;DHT22;5755;48.116;11.608;2022-10-16T15:26:59;21.40;25.20
11399;DHT22;5755;48.116;11.608;2022-10-16T15:29:26;21.40;25.40
11399;DHT22;5755;48.116;11.608;2022-10-16T15:31:53;21.40;26.00
11399;DHT22;5755;48.116;11.608;2022-10-16T15:37:27;21.40;27.40
11399;DHT22;5755;48.116;11.608;2022-10-16T15:40:03;21.40;28.30
11399;DHT22;5755;48.116;11.608;2022-10-16T15:42:29;21.30;28.80
11399;DHT22;5755;48.116;11.608;2022-10-16T15:45:24;21.30;29.50
11399;DHT22;5755;48.116;11.608;2022-10-16T15:51:13;21.20;30.90
11399;DHT22;5755;48.116;11.608;2022-10-16T15:53:55;21.10;32.20
11399;DHT22;5755;48.116;11.608;2022-10-16T15:56:24;21.00;32.90
11399;DHT22;5755;48.116;11.608;2022-10-16T15:58:51;20.90;32.80
11399;DHT22;5755;48.116;11.608;2022-10-16T16:01:19;20.80;33.60
11399;DHT22;5755;48.116;11.608;2022-10-16T16:03:46;20.70;35.40
11399;DHT22;5755;48.116;11.608;2022-10-16T16:06:13;20.60;36.40
11399;DHT22;5755;48.116;11.608;2022-10-16T16:08:40;20.50;38.50
11399;DHT22;5755;48.116;11.608;2022-10-16T16:11:14;20.40;39.60
11399;DHT22;5755;48.116;11.608;2022-10-16T16:13:50;20.30;41.20
11399;DHT22;5755;48.116;11.608;2022-10-16T16:16:25;20.20;43.30
11399;DHT22;5755;48.116;11.608;2022-10-16T16:19:01;20.00;44.60
11399;DHT22;5755;48.116;11.608;2022-10-16T16:21:43;19.90;46.50
11399;DHT22;5755;48.116;11.608;2022-10-16T16:27:25;19.70;53.50
11399;DHT22;5755;48.116;11.608;2022-10-16T16:29:56;19.60;55.50
11399;DHT22;5755;48.116;11.608;2022-10-16T16:32:23;19.40;55.30
11399;DHT22;5755;48.116;11.608;2022-10-16T16:34:50;19.40;58.60
11399;DHT22;5755;48.116;11.608;2022-10-16T16:37:17;19.30;62.10
11399;DHT22;5755;48.116;11.608;2022-10-16T16:39:44;19.20;65.40
11399;DHT22;5755;48.116;11.608;2022-10-16T16:42:10;19.00;67.50
11399;DHT22;5755;48.116;11.608;2022-10-16T16:44:37;18.90;69.90
11399;DHT22;5755;48.116;11.608;2022-10-16T16:47:09;18.80;72.40
11399;DHT22;5755;48.116;11.608;2022-10-16T16:49:36;18.70;73.50
11399;DHT22;5755;48.116;11.608;2022-10-16T16:52:03;18.60;75.00
11399;DHT22;5755;48.116;11.608;2022-10-16T16:54:31;18.60;77.40
11399;DHT22;5755;48.116;11.608;2022-10-16T16:56:58;18.50;79.00
11399;DHT22;5755;48.116;11.608;2022-10-16T16:59:24;18.40;79.70
11399;DHT22;5755;48.116;11.608;2022-10-16T17:01:51;18.40;81.20
11399;DHT22;5755;48.116;11.608;2022-10-16T17:04:19;18.40;81.90
11399;DHT22;5755;48.116;11.608;2022-10-16T17:06:46;18.30;84.00
11399;DHT22;5755;48.116;11.608;2022-10-16T17:09:19;18.30;84.30
11399;DHT22;5755;48.116;11.608;2022-10-16T17:11:46;18.20;84.70
11399;DHT22;5755;48.116;11.608;2022-10-16T17:14:14;18.20;84.70
11399;DHT22;5755;48.116;11.608;2022-10-16T17:16:41;18.10;85.50
11399;DHT22;5755;48.116;11.608;2022-10-16T17:19:13;18.00;86.80
11399;DHT22;5755;48.116;11.608;2022-10-16T17:21:42;17.90;87.70
11399;DHT22;5755;48.116;11.608;2022-10-16T17:24:13;17.80;89.10
11399;DHT22;5755;48.116;11.608;2022-10-16T17:26:40;17.70;89.80
11399;DHT22;5755;48.116;11.608;2022-10-16T17:29:11;17.60;90.00
11399;DHT22;5755;48.116;11.608;2022-10-16T17:31:38;17.50;90.30
11399;DHT22;5755;48.116;11.608;2022-10-16T17:34:07;17.50;90.90
11399;DHT22;5755;48.116;11.608;2022-10-16T17:36:36;17.40;91.00
11399;DHT22;5755;48.116;11.608;2022-10-16T17:39:06;17.40;91.50
11399;DHT22;5755;48.116;11.608;2022-10-16T17:41:35;17.40;92.00
11399;DHT22;5755;48.116;11.608;2022-10-16T17:44:02;17.40;91.80
11399;DHT22;5755;48.116;11.608;2022-10-16T17:46:29;17.30;92.00
11399;DHT22;5755;48.116;11.608;2022-10-16T17:48:56;17.30;92.00
11399;DHT22;5755;48.116;11.608;2022-10-16T17:51:26;17.20;92.30
11399;DHT22;5755;48.116;11.608;2022-10-16T17:53:54;17.20;92.30
11399;DHT22;5755;48.116;11.608;2022-10-16T17:56:24;17.10;92.10
11399;DHT22;5755;48.116;11.608;2022-10-16T17:58:56;17.00;92.60
11399;DHT22;5755;48.116;11.608;2022-10-16T18:01:26;16.90;93.10
11399;DHT22;5755;48.116;11.608;2022-10-16T18:03:55;17.10;93.40
11399;DHT22;5755;48.116;11.608;2022-10-16T18:06:22;17.10;93.00
11399;DHT22;5755;48.116;11.608;2022-10-16T18:08:49;16.90;93.40
11399;DHT22;5755;48.116;11.608;2022-10-16T18:11:16;16.90;93.60
11399;DHT22;5755;48.116;11.608;2022-10-16T18:13:53;16.90;93.60
11399;DHT22;5755;48.116;11.608;2022-10-16T18:16:19;16.90;93.90